sensor_id;sensor_type;location;lat;lon;timestamp;pressure;altitude;pressure_sealevel;temperature;humidity
550;BME280;20066;48.764;9.176;2023-03-17T00:01:47;97950.16;;;7.73;56.81
550;BME280;20066;48.764;9.176;2023-03-17T00:04:22;97946.28;;;8.18;54.76
550;BME280;20066;48.764;9.176;2023-03-17T00:06:52;97946.06;;;8.44;53.68
550;BME280;20066;48.764;9.176;2023-03-17T00:09:20;97945.31;;;8.51;54.03
550;BME280;20066;48.764;9.176;2023-03-17T00:11:48;97941.28;;;8.13;54.89
550;BME280;20066;48.764;9.176;2023-03-17T00:14:17;97930.88;;;8.04;55.54
550;BME280;20066;48.764;9.176;2023-03-17T00:16:47;97922.94;;;8.15;55.39
550;BME280;20066;48.764;9.176;2023-03-17T00:19:17;97921.00;;;8.12;56.04
550;BME280;20066;48.764;9.176;2023-03-17T00:21:48;97914.09;;;8.83;53.13
550;BME280;20066;48.764;9.176;2023-03-17T00:24:16;97924.44;;;8.85;52.91
550;BME280;20066;48.764;9.176;2023-03-17T00:26:44;97915.53;;;7.94;55.36
550;BME280;20066;48.764;9.176;2023-03-17T00:29:12;97904.22;;;8.22;54.28
550;BME280;20066;48.764;9.176;2023-03-17T00:31:42;97906.38;;;8.68;53.84
550;BME280;20066;48.764;9.176;2023-03-17T00:34:15;97905.28;;;8.83;52.89
550;BME280;20066;48.764;9.176;2023-03-17T00:36:45;97899.59;;;8.99;52.77
550;BME280;20066;48.764;9.176;2023-03-17T00:39:15;97899.22;;;9.11;51.78
550;BME280;20066;48.764;9.176;2023-03-17T00:41:44;97900.56;;;8.55;52.85
550;BME280;20066;48.764;9.176;2023-03-17T00:44:11;97899.97;;;8.97;52.74
550;BME280;20066;48.764;9.176;2023-03-17T00:46:40;97894.50;;;8.72;52.40
550;BME280;20066;48.764;9.176;2023-03-17T00:49:14;97897.50;;;8.53;53.54
550;BME280;20066;48.764;9.176;2023-03-17T00:51:41;97889.47;;;8.60;53.19
550;BME280;20066;48.764;9.176;2023-03-17T00:54:11;97894.00;;;8.49;53.11
550;BME280;20066;48.764;9.176;2023-03-17T00:56:41;97888.47;;;8.93;52.57
550;BME280;20066;48.764;9.176;2023-03-17T00:59:16;97885.06;;;9.17;51.94
550;BME280;20066;48.764;9.176;2023-03-17T01:01:46;97888.09;;;9.05;52.45
550;BME280;20066;48.764;9.176;2023-03-17T01:04:14;97880.38;;;8.79;52.59
550;BME280;20066;48.764;9.176;2023-03-17T01:06:43;97887.06;;;7.72;55.97
550;BME280;20066;48.764;9.176;2023-03-17T01:09:12;97874.03;;;8.25;53.66
550;BME280;20066;48.764;9.176;2023-03-17T01:11:43;97865.09;;;8.90;52.58
550;BME280;20066;48.764;9.176;2023-03-17T01:14:12;97857.09;;;9.18;51.90
550;BME280;20066;48.764;9.176;2023-03-17T01:16:41;97859.75;;;9.08;52.30
550;BME280;20066;48.764;9.176;2023-03-17T01:19:11;97862.47;;;9.18;51.40
550;BME280;20066;48.764;9.176;2023-03-17T01:21:39;97856.72;;;9.45;50.86
550;BME280;20066;48.764;9.176;2023-03-17T01:24:08;97864.56;;;8.52;53.59
550;BME280;20066;48.764;9.176;2023-03-17T01:26:36;97860.94;;;8.13;54.35
550;BME280;20066;48.764;9.176;2023-03-17T01:29:06;97862.84;;;8.12;54.55
550;BME280;20066;48.764;9.176;2023-03-17T01:31:34;97852.81;;;8.85;53.06
550;BME280;20066;48.764;9.176;2023-03-17T01:34:02;97855.91;;;8.87;52.30
550;BME280;20066;48.764;9.176;2023-03-17T01:36:31;97844.47;;;9.26;51.27
550;BME280;20066;48.764;9.176;2023-03-17T01:39:00;97846.00;;;9.41;51.38
550;BME280;20066;48.764;9.176;2023-03-17T01:41:32;97847.50;;;9.46;51.01
550;BME280;20066;48.764;9.176;2023-03-17T01:44:00;97848.63;;;9.73;50.65
550;BME280;20066;48.764;9.176;2023-03-17T01:46:36;97849.78;;;9.83;50.47
550;BME280;20066;48.764;9.176;2023-03-17T01:49:12;97843.28;;;9.30;51.96
550;BME280;20066;48.764;9.176;2023-03-17T01:51:49;97842.91;;;9.14;52.18
550;BME280;20066;48.764;9.176;2023-03-17T01:54:23;97839.38;;;8.75;53.05
550;BME280;20066;48.764;9.176;2023-03-17T01:56:55;97825.25;;;9.35;52.42
550;BME280;20066;48.764;9.176;2023-03-17T01:59:27;97828.72;;;9.46;51.69
550;BME280;20066;48.764;9.176;2023-03-17T02:02:03;97818.78;;;9.25;52.90
550;BME280;20066;48.764;9.176;2023-03-17T02:04:51;97830.22;;;9.68;51.42
550;BME280;20066;48.764;9.176;2023-03-17T02:07:20;97833.31;;;9.77;50.56
550;BME280;20066;48.764;9.176;2023-03-17T02:09:49;97834.84;;;9.67;50.04
550;BME280;20066;48.764;9.176;2023-03-17T02:12:18;97838.69;;;9.52;51.09
550;BME280;20066;48.764;9.176;2023-03-17T02:14:48;97834.09;;;9.24;52.06
550;BME280;20066;48.764;9.176;2023-03-17T02:17:17;97828.34;;;9.22;52.87
550;BME280;20066;48.764;9.176;2023-03-17T02:19:47;97837.13;;;9.05;53.07
550;BME280;20066;48.764;9.176;2023-03-17T02:22:18;97829.44;;;8.82;53.66
550;BME280;20066;48.764;9.176;2023-03-17T02:24:50;97822.84;;;8.59;53.71
550;BME280;20066;48.764;9.176;2023-03-17T02:27:23;97820.56;;;8.64;54.73
550;BME280;20066;48.764;9.176;2023-03-17T02:29:53;97834.47;;;9.09;53.76
550;BME280;20066;48.764;9.176;2023-03-17T02:32:20;97836.78;;;9.35;52.74
550;BME280;20066;48.764;9.176;2023-03-17T02:34:49;97839.06;;;9.29;51.92
550;BME280;20066;48.764;9.176;2023-03-17T02:37:19;97835.59;;;8.90;53.39
550;BME280;20066;48.764;9.176;2023-03-17T02:39:47;97836.22;;;8.51;54.50
550;BME280;20066;48.764;9.176;2023-03-17T02:42:15;97824.88;;;7.93;56.40
550;BME280;20066;48.764;9.176;2023-03-17T02:44:43;97822.09;;;8.62;55.10
550;BME280;20066;48.764;9.176;2023-03-17T02:47:11;97825.59;;;8.80;54.48
550;BME280;20066;48.764;9.176;2023-03-17T02:49:40;97818.88;;;8.21;55.59
550;BME280;20066;48.764;9.176;2023-03-17T02:52:08;97819.31;;;8.33;55.47
550;BME280;20066;48.764;9.176;2023-03-17T02:54:39;97810.38;;;8.04;55.89
550;BME280;20066;48.764;9.176;2023-03-17T02:57:07;97814.38;;;7.63;56.90
550;BME280;20066;48.764;9.176;2023-03-17T02:59:35;97810.88;;;8.28;56.16
550;BME280;20066;48.764;9.176;2023-03-17T03:02:03;97796.13;;;8.83;54.78
550;BME280;20066;48.764;9.176;2023-03-17T03:04:31;97799.91;;;8.68;55.22
550;BME280;20066;48.764;9.176;2023-03-17T03:06:58;97808.41;;;8.95;54.37
550;BME280;20066;48.764;9.176;2023-03-17T03:09:26;97813.00;;;9.19;53.17
550;BME280;20066;48.764;9.176;2023-03-17T03:11:56;97811.84;;;8.92;53.39
550;BME280;20066;48.764;9.176;2023-03-17T03:14:24;97801.84;;;7.77;56.78
550;BME280;20066;48.764;9.176;2023-03-17T03:16:52;97797.59;;;7.18;59.28
550;BME280;20066;48.764;9.176;2023-03-17T03:19:20;97797.44;;;8.17;56.51
550;BME280;20066;48.764;9.176;2023-03-17T03:21:48;97808.75;;;8.76;54.55
550;BME280;20066;48.764;9.176;2023-03-17T03:24:16;97808.38;;;8.84;54.04
550;BME280;20066;48.764;9.176;2023-03-17T03:26:44;97804.53;;;8.71;54.68
550;BME280;20066;48.764;9.176;2023-03-17T03:29:13;97802.25;;;8.87;53.79
550;BME280;20066;48.764;9.176;2023-03-17T03:31:42;97800.69;;;8.69;54.78
550;BME280;20066;48.764;9.176;2023-03-17T03:34:11;97795.63;;;8.53;55.39
550;BME280;20066;48.764;9.176;2023-03-17T03:36:39;97794.97;;;9.06;53.31
550;BME280;20066;48.764;9.176;2023-03-17T03:39:07;97801.50;;;8.94;53.80
550;BME280;20066;48.764;9.176;2023-03-17T03:41:36;97800.63;;;8.58;54.32
550;BME280;20066;48.764;9.176;2023-03-17T03:44:04;97796.78;;;7.62;56.61
550;BME280;20066;48.764;9.176;2023-03-17T03:46:33;97802.06;;;7.55;58.07
550;BME280;20066;48.764;9.176;2023-03-17T03:49:01;97814.53;;;7.95;56.74
550;BME280;20066;48.764;9.176;2023-03-17T03:51:29;97810.94;;;8.49;56.13
550;BME280;20066;48.764;9.176;2023-03-17T03:53:57;97811.38;;;8.62;55.14
550;BME280;20066;48.764;9.176;2023-03-17T03:56:25;97811.28;;;8.33;55.14
550;BME280;20066;48.764;9.176;2023-03-17T03:58:52;97802.16;;;8.48;54.83
550;BME280;20066;48.764;9.176;2023-03-17T04:01:22;97797.97;;;8.65;54.14
550;BME280;20066;48.764;9.176;2023-03-17T04:03:51;97803.66;;;8.46;55.23
550;BME280;20066;48.764;9.176;2023-03-17T04:06:19;97800.31;;;8.81;53.69
550;BME280;20066;48.764;9.176;2023-03-17T04:08:47;97798.28;;;8.42;54.43
550;BME280;20066;48.764;9.176;2023-03-17T04:11:15;97796.41;;;8.46;54.83
550;BME280;20066;48.764;9.176;2023-03-17T04:13:43;97796.94;;;7.94;55.83
550;BME280;20066;48.764;9.176;2023-03-17T04:16:11;97795.94;;;8.27;55.10
550;BME280;20066;48.764;9.176;2023-03-17T04:18:39;97786.66;;;8.06;54.75
550;BME280;20066;48.764;9.176;2023-03-17T04:21:08;97800.16;;;8.28;54.79
550;BME280;20066;48.764;9.176;2023-03-17T04:23:36;97799.44;;;8.45;54.71
550;BME280;20066;48.764;9.176;2023-03-17T04:26:04;97799.50;;;7.69;56.19
550;BME280;20066;48.764;9.176;2023-03-17T04:28:32;97787.06;;;7.40;57.21
550;BME280;20066;48.764;9.176;2023-03-17T04:31:00;97791.88;;;7.71;56.19
550;BME280;20066;48.764;9.176;2023-03-17T04:33:28;97782.84;;;8.07;55.08
550;BME280;20066;48.764;9.176;2023-03-17T04:35:56;97780.19;;;8.11;55.55
550;BME280;20066;48.764;9.176;2023-03-17T04:38:26;97779.53;;;8.46;54.20
550;BME280;20066;48.764;9.176;2023-03-17T04:40:54;97783.44;;;7.69;55.81
550;BME280;20066;48.764;9.176;2023-03-17T04:43:21;97776.13;;;7.66;56.49
550;BME280;20066;48.764;9.176;2023-03-17T04:45:50;97779.34;;;7.93;55.53
550;BME280;20066;48.764;9.176;2023-03-17T04:48:18;97776.81;;;8.32;54.48
550;BME280;20066;48.764;9.176;2023-03-17T04:50:46;97778.44;;;7.67;56.04
550;BME280;20066;48.764;9.176;2023-03-17T04:53:14;97773.09;;;7.13;57.26
550;BME280;20066;48.764;9.176;2023-03-17T04:55:43;97769.19;;;6.99;58.25
550;BME280;20066;48.764;9.176;2023-03-17T04:58:11;97772.69;;;7.62;57.57
550;BME280;20066;48.764;9.176;2023-03-17T05:00:56;97769.03;;;7.98;56.13
550;BME280;20066;48.764;9.176;2023-03-17T05:03:24;97765.31;;;8.17;54.30
550;BME280;20066;48.764;9.176;2023-03-17T05:05:54;97773.75;;;7.50;56.69
550;BME280;20066;48.764;9.176;2023-03-17T05:08:23;97771.69;;;7.95;55.93
550;BME280;20066;48.764;9.176;2023-03-17T05:10:52;97763.22;;;7.17;57.83
550;BME280;20066;48.764;9.176;2023-03-17T05:13:21;97755.47;;;7.01;58.56
550;BME280;20066;48.764;9.176;2023-03-17T05:15:50;97763.22;;;7.79;56.19
550;BME280;20066;48.764;9.176;2023-03-17T05:18:19;97757.91;;;7.89;55.45
550;BME280;20066;48.764;9.176;2023-03-17T05:20:47;97757.16;;;7.92;55.78
550;BME280;20066;48.764;9.176;2023-03-17T05:23:14;97761.13;;;7.47;55.99
550;BME280;20066;48.764;9.176;2023-03-17T05:25:42;97764.00;;;7.83;55.67
550;BME280;20066;48.764;9.176;2023-03-17T05:28:12;97762.19;;;8.08;54.98
550;BME280;20066;48.764;9.176;2023-03-17T05:30:41;97767.06;;;7.23;56.60
550;BME280;20066;48.764;9.176;2023-03-17T05:33:09;97763.88;;;6.63;57.67
550;BME280;20066;48.764;9.176;2023-03-17T05:35:37;97773.34;;;7.45;55.61
550;BME280;20066;48.764;9.176;2023-03-17T05:38:06;97774.63;;;7.68;55.59
550;BME280;20066;48.764;9.176;2023-03-17T05:40:35;97778.19;;;7.90;54.20
550;BME280;20066;48.764;9.176;2023-03-17T05:43:03;97780.31;;;7.05;56.93
550;BME280;20066;48.764;9.176;2023-03-17T05:45:33;97774.38;;;7.29;56.14
550;BME280;20066;48.764;9.176;2023-03-17T05:48:02;97773.13;;;7.71;55.38
550;BME280;20066;48.764;9.176;2023-03-17T05:50:30;97777.66;;;7.63;54.86
550;BME280;20066;48.764;9.176;2023-03-17T05:52:58;97769.13;;;8.16;53.04
550;BME280;20066;48.764;9.176;2023-03-17T05:55:27;97768.75;;;8.18;53.83
550;BME280;20066;48.764;9.176;2023-03-17T05:57:54;97770.63;;;8.10;53.44
550;BME280;20066;48.764;9.176;2023-03-17T06:00:25;97756.91;;;8.29;53.00
550;BME280;20066;48.764;9.176;2023-03-17T06:02:56;97768.81;;;8.49;52.37
550;BME280;20066;48.764;9.176;2023-03-17T06:05:24;97764.16;;;8.22;52.45
550;BME280;20066;48.764;9.176;2023-03-17T06:07:52;97769.13;;;7.40;54.43
550;BME280;20066;48.764;9.176;2023-03-17T06:10:22;97761.47;;;7.38;54.24
550;BME280;20066;48.764;9.176;2023-03-17T06:12:50;97754.44;;;7.20;55.17
550;BME280;20066;48.764;9.176;2023-03-17T06:15:19;97767.81;;;7.82;53.80
550;BME280;20066;48.764;9.176;2023-03-17T06:17:47;97779.94;;;8.41;53.32
550;BME280;20066;48.764;9.176;2023-03-17T06:20:16;97787.56;;;7.56;54.43
550;BME280;20066;48.764;9.176;2023-03-17T06:22:44;97774.28;;;7.15;54.56
550;BME280;20066;48.764;9.176;2023-03-17T06:25:29;97772.81;;;7.87;53.21
550;BME280;20066;48.764;9.176;2023-03-17T06:28:04;97774.84;;;8.14;53.03
550;BME280;20066;48.764;9.176;2023-03-17T06:30:33;97775.63;;;8.19;52.34
550;BME280;20066;48.764;9.176;2023-03-17T06:33:05;97782.97;;;8.39;51.19
550;BME280;20066;48.764;9.176;2023-03-17T06:35:36;97779.91;;;8.44;50.72
550;BME280;20066;48.764;9.176;2023-03-17T06:38:04;97776.13;;;8.56;51.01
550;BME280;20066;48.764;9.176;2023-03-17T06:40:32;97781.09;;;8.65;50.79
550;BME280;20066;48.764;9.176;2023-03-17T06:43:01;97769.69;;;8.82;49.89
550;BME280;20066;48.764;9.176;2023-03-17T06:45:29;97773.13;;;8.89;50.34
550;BME280;20066;48.764;9.176;2023-03-17T06:48:02;97774.28;;;9.27;49.42
550;BME280;20066;48.764;9.176;2023-03-17T06:50:32;97769.31;;;9.33;49.16
550;BME280;20066;48.764;9.176;2023-03-17T06:53:02;97765.09;;;9.00;49.57
550;BME280;20066;48.764;9.176;2023-03-17T06:55:30;97767.78;;;9.39;48.90
550;BME280;20066;48.764;9.176;2023-03-17T06:58:02;97762.78;;;9.34;49.11
550;BME280;20066;48.764;9.176;2023-03-17T07:00:31;97767.75;;;9.43;49.08
550;BME280;20066;48.764;9.176;2023-03-17T07:02:58;97768.53;;;8.79;50.59
550;BME280;20066;48.764;9.176;2023-03-17T07:05:27;97772.69;;;8.66;50.95
550;BME280;20066;48.764;9.176;2023-03-17T07:07:55;97773.16;;;9.14;50.53
550;BME280;20066;48.764;9.176;2023-03-17T07:10:24;97771.22;;;8.94;50.84
550;BME280;20066;48.764;9.176;2023-03-17T07:12:52;97775.25;;;8.27;51.77
550;BME280;20066;48.764;9.176;2023-03-17T07:15:21;97776.19;;;9.27;49.83
550;BME280;20066;48.764;9.176;2023-03-17T07:17:49;97790.00;;;9.47;48.02
550;BME280;20066;48.764;9.176;2023-03-17T07:20:17;97789.19;;;8.68;49.50
550;BME280;20066;48.764;9.176;2023-03-17T07:22:45;97789.97;;;9.68;47.02
550;BME280;20066;48.764;9.176;2023-03-17T07:25:13;97789.56;;;9.80;47.28
550;BME280;20066;48.764;9.176;2023-03-17T07:27:42;97780.41;;;9.46;48.24
550;BME280;20066;48.764;9.176;2023-03-17T07:30:11;97783.09;;;10.61;46.11
550;BME280;20066;48.764;9.176;2023-03-17T07:32:40;97796.53;;;11.20;44.81
550;BME280;20066;48.764;9.176;2023-03-17T07:35:08;97788.88;;;11.59;43.67
550;BME280;20066;48.764;9.176;2023-03-17T07:37:36;97779.69;;;11.57;43.86
550;BME280;20066;48.764;9.176;2023-03-17T07:40:05;97779.84;;;11.39;44.82
550;BME280;20066;48.764;9.176;2023-03-17T07:42:35;97786.16;;;12.04;43.73
550;BME280;20066;48.764;9.176;2023-03-17T07:45:05;97788.38;;;12.43;42.65
550;BME280;20066;48.764;9.176;2023-03-17T07:47:34;97789.72;;;12.58;42.29
550;BME280;20066;48.764;9.176;2023-03-17T07:50:02;97787.59;;;12.73;42.79
550;BME280;20066;48.764;9.176;2023-03-17T07:52:30;97770.34;;;12.94;42.44
550;BME280;20066;48.764;9.176;2023-03-17T07:54:59;97771.47;;;12.39;43.18
550;BME280;20066;48.764;9.176;2023-03-17T07:57:28;97765.97;;;12.46;43.28
550;BME280;20066;48.764;9.176;2023-03-17T07:59:56;97767.00;;;11.95;44.70
550;BME280;20066;48.764;9.176;2023-03-17T08:02:25;97774.22;;;12.35;43.21
550;BME280;20066;48.764;9.176;2023-03-17T08:04:53;97770.16;;;12.77;43.73
550;BME280;20066;48.764;9.176;2023-03-17T08:07:22;97770.28;;;12.97;43.19
550;BME280;20066;48.764;9.176;2023-03-17T08:09:50;97776.38;;;12.74;42.07
550;BME280;20066;48.764;9.176;2023-03-17T08:12:18;97777.13;;;15.03;38.45
550;BME280;20066;48.764;9.176;2023-03-17T08:14:45;97780.88;;;17.89;33.61
550;BME280;20066;48.764;9.176;2023-03-17T08:17:13;97787.91;;;19.63;30.08
550;BME280;20066;48.764;9.176;2023-03-17T08:19:43;97782.34;;;23.24;26.24
550;BME280;20066;48.764;9.176;2023-03-17T08:22:11;97780.00;;;25.44;22.78
550;BME280;20066;48.764;9.176;2023-03-17T08:24:39;97777.66;;;25.96;21.67
550;BME280;20066;48.764;9.176;2023-03-17T08:27:08;97784.53;;;26.56;21.04
550;BME280;20066;48.764;9.176;2023-03-17T08:29:36;97775.47;;;27.17;20.49
550;BME280;20066;48.764;9.176;2023-03-17T08:32:05;97773.81;;;25.71;21.19
550;BME280;20066;48.764;9.176;2023-03-17T08:34:33;97775.69;;;25.00;22.04
550;BME280;20066;48.764;9.176;2023-03-17T08:37:02;97770.97;;;25.06;22.23
550;BME280;20066;48.764;9.176;2023-03-17T08:39:31;97771.50;;;25.05;22.23
550;BME280;20066;48.764;9.176;2023-03-17T08:41:58;97764.81;;;24.23;22.99
550;BME280;20066;48.764;9.176;2023-03-17T08:44:26;97755.63;;;23.79;24.07
550;BME280;20066;48.764;9.176;2023-03-17T08:46:54;97760.88;;;25.35;22.51
550;BME280;20066;48.764;9.176;2023-03-17T08:49:23;97767.34;;;29.05;19.37
550;BME280;20066;48.764;9.176;2023-03-17T08:51:51;97766.06;;;30.30;17.85
550;BME280;20066;48.764;9.176;2023-03-17T08:54:21;97762.31;;;30.59;16.90
550;BME280;20066;48.764;9.176;2023-03-17T08:56:51;97761.41;;;27.20;18.75
550;BME280;20066;48.764;9.176;2023-03-17T08:59:20;97754.81;;;25.25;20.74
550;BME280;20066;48.764;9.176;2023-03-17T09:01:48;97757.94;;;27.78;19.03
550;BME280;20066;48.764;9.176;2023-03-17T09:04:16;97751.84;;;30.52;16.61
550;BME280;20066;48.764;9.176;2023-03-17T09:06:44;97757.69;;;29.98;16.61
550;BME280;20066;48.764;9.176;2023-03-17T09:09:30;97752.97;;;29.93;17.19
550;BME280;20066;48.764;9.176;2023-03-17T09:11:59;97746.78;;;28.00;17.75
550;BME280;20066;48.764;9.176;2023-03-17T09:14:27;97744.59;;;28.58;18.77
550;BME280;20066;48.764;9.176;2023-03-17T09:17:08;97745.34;;;32.70;15.56
550;BME280;20066;48.764;9.176;2023-03-17T09:19:36;97747.72;;;34.69;13.73
550;BME280;20066;48.764;9.176;2023-03-17T09:22:04;97735.63;;;30.25;16.63
550;BME280;20066;48.764;9.176;2023-03-17T09:24:33;97735.31;;;29.10;16.56
550;BME280;20066;48.764;9.176;2023-03-17T09:27:01;97729.59;;;26.14;17.87
550;BME280;20066;48.764;9.176;2023-03-17T09:29:29;97732.53;;;27.16;17.50
550;BME280;20066;48.764;9.176;2023-03-17T09:31:59;97738.41;;;26.73;17.43
550;BME280;20066;48.764;9.176;2023-03-17T09:34:27;97733.88;;;26.70;17.65
550;BME280;20066;48.764;9.176;2023-03-17T09:36:55;97726.66;;;24.67;18.77
550;BME280;20066;48.764;9.176;2023-03-17T09:39:25;97738.09;;;25.34;17.81
550;BME280;20066;48.764;9.176;2023-03-17T09:42:03;97731.38;;;23.78;19.51
550;BME280;20066;48.764;9.176;2023-03-17T09:44:45;97722.28;;;22.41;20.81
550;BME280;20066;48.764;9.176;2023-03-17T09:47:28;97726.63;;;22.33;21.44
550;BME280;20066;48.764;9.176;2023-03-17T09:50:02;97735.56;;;23.73;20.00
550;BME280;20066;48.764;9.176;2023-03-17T09:52:33;97724.47;;;23.42;20.51
550;BME280;20066;48.764;9.176;2023-03-17T09:55:05;97724.84;;;23.75;20.12
550;BME280;20066;48.764;9.176;2023-03-17T09:57:37;97723.78;;;26.00;19.92
550;BME280;20066;48.764;9.176;2023-03-17T10:00:12;97728.44;;;23.61;20.56
550;BME280;20066;48.764;9.176;2023-03-17T10:02:41;97736.41;;;24.63;19.42
550;BME280;20066;48.764;9.176;2023-03-17T10:05:17;97726.19;;;24.37;19.62
550;BME280;20066;48.764;9.176;2023-03-17T10:07:49;97724.09;;;26.19;18.94
550;BME280;20066;48.764;9.176;2023-03-17T10:10:27;97730.09;;;26.57;17.64
550;BME280;20066;48.764;9.176;2023-03-17T10:13:05;97725.59;;;26.20;18.29
550;BME280;20066;48.764;9.176;2023-03-17T10:15:42;97712.28;;;26.86;18.20
550;BME280;20066;48.764;9.176;2023-03-17T10:18:15;97718.81;;;27.57;17.15
550;BME280;20066;48.764;9.176;2023-03-17T10:20:50;97711.25;;;25.99;17.93
550;BME280;20066;48.764;9.176;2023-03-17T10:23:20;97709.16;;;27.17;17.56
550;BME280;20066;48.764;9.176;2023-03-17T10:25:51;97700.03;;;24.47;20.28
550;BME280;20066;48.764;9.176;2023-03-17T10:28:26;97695.34;;;27.28;18.81
550;BME280;20066;48.764;9.176;2023-03-17T10:31:01;97706.66;;;28.18;18.11
550;BME280;20066;48.764;9.176;2023-03-17T10:33:36;97705.69;;;24.38;19.78
550;BME280;20066;48.764;9.176;2023-03-17T10:36:08;97702.72;;;25.86;19.21
550;BME280;20066;48.764;9.176;2023-03-17T10:38:37;97699.91;;;24.68;19.40
550;BME280;20066;48.764;9.176;2023-03-17T10:41:06;97688.88;;;23.13;21.11
550;BME280;20066;48.764;9.176;2023-03-17T10:43:41;97678.91;;;22.10;21.92
550;BME280;20066;48.764;9.176;2023-03-17T10:46:18;97679.34;;;22.38;21.63
550;BME280;20066;48.764;9.176;2023-03-17T10:48:52;97689.94;;;24.33;20.55
550;BME280;20066;48.764;9.176;2023-03-17T10:51:27;97689.06;;;24.53;20.17
550;BME280;20066;48.764;9.176;2023-03-17T10:53:59;97687.75;;;24.11;20.18
550;BME280;20066;48.764;9.176;2023-03-17T10:56:33;97687.97;;;26.34;18.57
550;BME280;20066;48.764;9.176;2023-03-17T10:59:07;97686.38;;;27.00;18.08
550;BME280;20066;48.764;9.176;2023-03-17T11:01:37;97687.22;;;26.50;18.79
550;BME280;20066;48.764;9.176;2023-03-17T11:04:24;97688.84;;;27.09;17.53
550;BME280;20066;48.764;9.176;2023-03-17T11:06:55;97676.66;;;25.93;19.18
550;BME280;20066;48.764;9.176;2023-03-17T11:09:24;97674.13;;;26.78;18.10
550;BME280;20066;48.764;9.176;2023-03-17T11:12:03;97670.59;;;26.89;18.33
550;BME280;20066;48.764;9.176;2023-03-17T11:14:33;97669.59;;;26.87;19.07
550;BME280;20066;48.764;9.176;2023-03-17T11:17:03;97654.91;;;23.30;23.30
550;BME280;20066;48.764;9.176;2023-03-17T11:19:49;97660.50;;;24.13;22.35
550;BME280;20066;48.764;9.176;2023-03-17T11:22:26;97653.28;;;22.13;25.02
550;BME280;20066;48.764;9.176;2023-03-17T11:25:03;97649.44;;;22.55;24.86
550;BME280;20066;48.764;9.176;2023-03-17T11:27:40;97646.72;;;23.36;23.93
550;BME280;20066;48.764;9.176;2023-03-17T11:30:17;97650.69;;;24.07;23.43
550;BME280;20066;48.764;9.176;2023-03-17T11:32:54;97638.13;;;22.82;24.66
550;BME280;20066;48.764;9.176;2023-03-17T11:35:43;97634.09;;;22.63;24.61
550;BME280;20066;48.764;9.176;2023-03-17T11:38:21;97632.28;;;23.15;25.18
550;BME280;20066;48.764;9.176;2023-03-17T11:41:20;97638.75;;;24.10;23.95
550;BME280;20066;48.764;9.176;2023-03-17T11:47:01;97622.75;;;22.20;25.84
550;BME280;20066;48.764;9.176;2023-03-17T11:49:35;97616.72;;;22.51;24.71
550;BME280;20066;48.764;9.176;2023-03-17T11:52:07;97628.13;;;23.20;25.29
550;BME280;20066;48.764;9.176;2023-03-17T11:54:44;97626.09;;;25.14;22.92
550;BME280;20066;48.764;9.176;2023-03-17T11:57:16;97621.38;;;23.98;24.10
550;BME280;20066;48.764;9.176;2023-03-17T11:59:50;97622.25;;;24.47;24.27
550;BME280;20066;48.764;9.176;2023-03-17T12:02:25;97618.59;;;23.93;22.75
550;BME280;20066;48.764;9.176;2023-03-17T12:04:57;97614.16;;;25.40;21.22
550;BME280;20066;48.764;9.176;2023-03-17T12:07:32;97607.75;;;24.89;21.64
550;BME280;20066;48.764;9.176;2023-03-17T12:10:08;97613.34;;;23.89;22.64
550;BME280;20066;48.764;9.176;2023-03-17T12:12:46;97609.97;;;25.55;20.87
550;BME280;20066;48.764;9.176;2023-03-17T12:15:20;97601.81;;;25.07;20.78
550;BME280;20066;48.764;9.176;2023-03-17T12:17:55;97598.72;;;24.83;21.39
550;BME280;20066;48.764;9.176;2023-03-17T12:20:29;97601.63;;;23.17;22.58
550;BME280;20066;48.764;9.176;2023-03-17T12:23:04;97588.31;;;21.70;25.46
550;BME280;20066;48.764;9.176;2023-03-17T12:25:36;97601.69;;;23.42;23.72
550;BME280;20066;48.764;9.176;2023-03-17T12:28:12;97596.13;;;24.26;22.05
550;BME280;20066;48.764;9.176;2023-03-17T12:30:46;97595.34;;;24.68;22.51
550;BME280;20066;48.764;9.176;2023-03-17T12:33:32;97591.69;;;25.63;20.94
550;BME280;20066;48.764;9.176;2023-03-17T12:36:04;97584.44;;;26.16;18.46
550;BME280;20066;48.764;9.176;2023-03-17T12:38:36;97586.41;;;23.99;21.79
550;BME280;20066;48.764;9.176;2023-03-17T12:41:17;97578.69;;;21.30;25.03
550;BME280;20066;48.764;9.176;2023-03-17T12:44:04;97590.41;;;23.66;23.47
550;BME280;20066;48.764;9.176;2023-03-17T12:46:43;97579.63;;;22.71;24.69
550;BME280;20066;48.764;9.176;2023-03-17T12:49:36;97574.47;;;24.07;23.30
550;BME280;20066;48.764;9.176;2023-03-17T12:52:17;97577.75;;;22.62;25.07
550;BME280;20066;48.764;9.176;2023-03-17T12:54:51;97575.88;;;23.92;23.36
550;BME280;20066;48.764;9.176;2023-03-17T12:57:21;97574.22;;;22.96;24.34
550;BME280;20066;48.764;9.176;2023-03-17T12:59:58;97572.44;;;21.74;25.94
550;BME280;20066;48.764;9.176;2023-03-17T13:02:35;97564.84;;;20.95;26.60
550;BME280;20066;48.764;9.176;2023-03-17T13:05:06;97552.28;;;20.41;27.81
550;BME280;20066;48.764;9.176;2023-03-17T13:07:47;97551.97;;;20.48;27.17
550;BME280;20066;48.764;9.176;2023-03-17T13:10:37;97545.69;;;22.13;25.01
550;BME280;20066;48.764;9.176;2023-03-17T13:13:10;97552.16;;;21.80;25.07
550;BME280;20066;48.764;9.176;2023-03-17T13:15:50;97543.59;;;21.73;25.42
550;BME280;20066;48.764;9.176;2023-03-17T13:18:49;97542.66;;;23.32;23.83
550;BME280;20066;48.764;9.176;2023-03-17T13:21:23;97534.13;;;23.88;23.04
550;BME280;20066;48.764;9.176;2023-03-17T13:24:19;97539.72;;;23.67;22.39
550;BME280;20066;48.764;9.176;2023-03-17T13:26:57;97528.88;;;22.05;23.92
550;BME280;20066;48.764;9.176;2023-03-17T13:29:38;97526.59;;;22.39;23.18
550;BME280;20066;48.764;9.176;2023-03-17T13:32:35;97521.75;;;22.48;22.74
550;BME280;20066;48.764;9.176;2023-03-17T13:35:27;97527.72;;;23.13;22.32
550;BME280;20066;48.764;9.176;2023-03-17T13:38:30;97514.00;;;23.65;22.25
550;BME280;20066;48.764;9.176;2023-03-17T13:41:25;97517.47;;;22.67;22.58
550;BME280;20066;48.764;9.176;2023-03-17T13:44:11;97508.16;;;22.59;22.86
550;BME280;20066;48.764;9.176;2023-03-17T13:46:43;97507.00;;;23.38;21.79
550;BME280;20066;48.764;9.176;2023-03-17T13:49:19;97507.47;;;22.44;22.48
550;BME280;20066;48.764;9.176;2023-03-17T13:51:50;97511.63;;;21.99;22.12
550;BME280;20066;48.764;9.176;2023-03-17T13:54:32;97507.66;;;22.00;22.97